Terminal Aerodrome Forecast
Issued by NWS

Home | Current Version | Previous Version | Graphics & Text | Print | Product List | Glossary On
Versions: 1 2 3 4 5 6 7 8 9 10 11 12 13 14 15 16 17 18 19 20 21 22 23 24 25 26 27 28 29 30 31 32
000
FTUS45 KGGW 222300
TAFGDV
TAF
KGDV 222322Z 2300/2324 05015KT P6SM VCSH SCT020 BKN060
     FM230400 05020KT 5SM RA BR OVC015
     FM231500 07018G28KT 4SM RA BR OVC008
     FM232100 07020G30KT 4SM -RA BR OVC004
      AMD LTD TO CLD VIS AND WIND=

USA.gov is the U.S. government's official web portal to all federal, state and local government web resources and services.